Time;durP1;ratioP1;P1;durP2;ratioP2;P2;SDS_P1;SDS_P2;PMS_P1;PMS_P2;Temp;Humidity;BMP_temperature;BMP_pressure;BME280_temperature;BME280_humidity;BME280_pressure;Samples;Min_cycle;Max_cycle;Signal;HPM_P1;HPM_P2
2022/03/21 00:02:01;;;;;;;;;;;;;;;6.39;67.51;103379.03;5032634;28;19923;-88
2022/03/21 00:04:27;;;;;;;;;;;;;;;6.29;67.75;103382.28;5015807;28;19917;-86
2022/03/21 00:06:53;;;;;;;;;;;;;;;6.23;67.87;103377.31;5032257;28;19917;-87
2022/03/21 00:09:20;;;;;;;;;;;;;;;6.29;67.71;103374.50;5032333;28;19921;-88
2022/03/21 00:11:45;;;;;;;;;;;;;;;6.26;67.85;103374.13;5031659;28;20382;-87
2022/03/21 00:14:11;;;;;;;;;;;;;;;6.24;67.77;103373.03;5015778;28;19975;-88
2022/03/21 00:16:43;;;;;;;;;;;;;;;6.21;68.12;103365.84;5033564;28;19917;-89
2022/03/21 00:19:09;;;;;;;;;;;;;;;6.22;68.01;103366.75;5051774;28;19932;-89
2022/03/21 00:21:36;;;;;;;;;;;;;;;6.29;67.71;103366.72;5048343;28;19921;-86
2022/03/21 00:24:02;;;;;;;;;;;;;;;6.32;67.64;103362.78;5049007;28;19917;-88
2022/03/21 00:26:28;;;;;;;;;;;;;;;6.27;67.58;103360.44;5048957;28;19921;-87
2022/03/21 00:28:54;;;;;;;;;;;;;;;6.29;67.91;103365.03;5032084;28;20291;-89
2022/03/21 00:31:21;;;;;;;;;;;;;;;6.24;68.21;103358.38;5034656;28;19978;-89
2022/03/21 00:33:47;;;;;;;;;;;;;;;6.23;67.87;103353.03;5035624;28;20003;-88
2022/03/21 00:36:16;;;;;;;;;;;;;;;6.20;67.88;103357.88;5019058;28;19924;-87
2022/03/21 00:38:47;;;;;;;;;;;;;;;6.25;68.01;103354.13;5053335;28;19968;-89
2022/03/21 00:41:14;;;;;;;;;;;;;;;6.22;67.83;103353.78;5052766;28;19916;-89
2022/03/21 00:43:43;;;;;;;;;;;;;;;6.19;67.87;103356.94;5035022;28;19944;-87
2022/03/21 00:46:09;;;;;;;;;;;;;;;6.18;67.76;103349.00;5035049;28;20019;-87
2022/03/21 00:48:35;;;;;;;;;;;;;;;6.22;67.58;103348.59;5052824;28;20010;-86
2022/03/21 00:51:00;;;;;;;;;;;;;;;6.20;67.69;103353.63;5052621;28;19967;-86
2022/03/21 00:53:27;;;;;;;;;;;;;;;6.24;67.37;103347.09;5049870;28;20340;-88
2022/03/21 00:55:55;;;;;;;;;;;;;;;6.22;67.41;103346.00;5047956;28;19998;-89
2022/03/21 00:58:21;;;;;;;;;;;;;;;6.10;67.66;103342.94;5032353;28;19920;-88
2022/03/21 01:00:46;;;;;;;;;;;;;;;6.15;68.08;103341.78;5017862;28;19921;-86
2022/03/21 01:03:12;;;;;;;;;;;;;;;6.13;68.02;103344.97;5051575;28;20306;-88
2022/03/21 01:05:39;;;;;;;;;;;;;;;6.14;68.42;103341.59;5051282;28;19924;-87
2022/03/21 01:08:06;;;;;;;;;;;;;;;6.16;68.22;103337.50;5032358;28;20283;-86
2022/03/21 01:10:32;;;;;;;;;;;;;;;6.22;67.82;103333.00;5015207;28;19920;-88
2022/03/21 01:12:57;;;;;;;;;;;;;;;6.15;68.09;103343.47;5014860;28;19967;-87
2022/03/21 01:15:25;;;;;;;;;;;;;;;6.22;68.13;103330.41;5014580;28;20386;-87
2022/03/21 01:17:50;;;;;;;;;;;;;;;6.14;68.04;103326.97;5017905;28;20390;-87
2022/03/21 01:20:18;;;;;;;;;;;;;;;6.19;67.89;103327.50;5047631;28;19917;-87
2022/03/21 01:22:44;;;;;;;;;;;;;;;6.19;68.02;103315.44;5047206;28;19921;-88
2022/03/21 01:25:10;;;;;;;;;;;;;;;6.22;67.74;103317.44;5031238;28;19917;-88
2022/03/21 01:27:36;;;;;;;;;;;;;;;6.24;67.87;103322.06;5029835;28;20357;-86
2022/03/21 01:30:08;;;;;;;;;;;;;;;6.18;67.71;103315.25;5013833;28;20043;-86
2022/03/21 01:32:34;;;;;;;;;;;;;;;6.18;67.38;103305.81;5014854;28;20346;-87
2022/03/21 01:35:00;;;;;;;;;;;;;;;6.20;67.29;103316.34;5031334;28;20067;-87
2022/03/21 01:37:26;;;;;;;;;;;;;;;6.17;67.36;103311.75;5031005;28;19919;-88
2022/03/21 01:39:51;;;;;;;;;;;;;;;6.18;67.49;103305.81;5014072;28;20360;-87
2022/03/21 01:42:17;;;;;;;;;;;;;;;6.15;67.39;103309.75;5031084;28;19964;-88
2022/03/21 01:44:42;;;;;;;;;;;;;;;6.08;67.83;103315.91;5014724;28;20373;-89
2022/03/21 01:47:08;;;;;;;;;;;;;;;6.14;67.62;103305.28;5031003;28;19921;-87
2022/03/21 01:49:35;;;;;;;;;;;;;;;6.11;67.86;103314.56;5030276;28;19921;-88
2022/03/21 01:52:00;;;;;;;;;;;;;;;6.06;67.85;103312.22;5014576;28;19971;-89
2022/03/21 01:57:11;;;;;;;;;;;;;;;6.12;67.66;103307.72;5044235;28;19929;-88
2022/03/21 01:59:37;;;;;;;;;;;;;;;6.10;67.79;103315.31;5014319;28;20413;-87
2022/03/21 02:02:05;;;;;;;;;;;;;;;6.03;67.89;103317.03;5045713;28;19922;-88
2022/03/21 02:04:31;;;;;;;;;;;;;;;6.09;68.02;103315.16;5014717;28;20361;-88
2022/03/21 02:06:56;;;;;;;;;;;;;;;6.11;67.75;103313.66;5051544;28;19917;-88
2022/03/21 02:09:22;;;;;;;;;;;;;;;6.06;67.83;103313.13;5033154;28;20033;-87
2022/03/21 02:11:48;;;;;;;;;;;;;;;6.08;67.80;103315.91;4998340;28;19920;-87
2022/03/21 02:14:14;;;;;;;;;;;;;;;6.10;67.81;103314.41;5014835;28;19921;-87
2022/03/21 02:16:39;;;;;;;;;;;;;;;6.09;68.00;103320.34;5016929;28;19994;-88
2022/03/21 02:19:26;;;;;;;;;;;;;;;6.03;68.43;103315.41;5017541;28;19921;-87
2022/03/21 02:22:07;;;;;;;;;;;;;;;6.09;68.06;103315.16;5035142;28;19925;-88
2022/03/21 02:24:51;;;;;;;;;;;;;;;6.12;67.86;103312.91;5034346;28;19925;-89
2022/03/21 02:27:17;;;;;;;;;;;;;;;6.05;68.12;103312.94;5025137;28;19979;-88
2022/03/21 02:29:43;;;;;;;;;;;;;;;6.05;68.31;103319.09;5037127;28;19909;-88
2022/03/21 02:32:09;;;;;;;;;;;;;;;6.08;68.40;103315.91;5039841;28;19980;-88
2022/03/21 02:34:42;;;;;;;;;;;;;;;6.08;67.98;103316.81;5035010;28;19921;-89
2022/03/21 02:37:08;;;;;;;;;;;;;;;6.14;67.70;103313.06;5047307;28;19917;-89
2022/03/21 02:39:43;;;;;;;;;;;;;;;6.07;68.29;103316.66;5014914;28;19972;-89
2022/03/21 02:42:15;;;;;;;;;;;;;;;6.10;68.21;103319.59;5034282;28;20185;-89
2022/03/21 02:44:42;;;;;;;;;;;;;;;6.06;68.32;103323.50;5017512;28;19921;-89
2022/03/21 02:47:10;;;;;;;;;;;;;;;6.10;68.07;103323.09;5017481;28;19921;-89
2022/03/21 02:49:36;;;;;;;;;;;;;;;6.02;68.22;103323.00;5034068;28;19925;-89
2022/03/21 02:52:04;;;;;;;;;;;;;;;6.07;67.80;103316.66;5033948;28;20502;-88
2022/03/21 02:54:31;;;;;;;;;;;;;;;5.98;68.42;103313.03;5017078;28;19960;-89
2022/03/21 02:56:59;;;;;;;;;;;;;;;5.94;68.25;103313.38;5016752;28;19972;-87
2022/03/21 02:59:32;;;;;;;;;;;;;;;5.94;68.18;103316.88;5033561;28;19921;-89
2022/03/21 03:01:58;;;;;;;;;;;;;;;6.03;68.18;103307.63;5049552;28;20016;-89
2022/03/21 03:04:24;;;;;;;;;;;;;;;5.87;67.81;103315.28;5033946;28;20424;-88
2022/03/21 03:06:49;;;;;;;;;;;;;;;6.02;67.48;103312.63;5001532;28;20377;-88
2022/03/21 03:09:16;;;;;;;;;;;;;;;6.00;67.66;103316.72;5033208;28;20013;-88
2022/03/21 03:11:41;;;;;;;;;;;;;;;5.94;67.15;103316.88;5046009;28;20020;-86
2022/03/21 03:14:07;;;;;;;;;;;;;;;5.98;67.17;103315.63;5032429;28;20371;-85
2022/03/21 03:16:32;;;;;;;;;;;;;;;5.95;67.37;103312.66;5031816;28;20038;-87
2022/03/21 03:18:58;;;;;;;;;;;;;;;5.99;67.03;103309.66;5015806;28;20016;-87
2022/03/21 03:21:27;;;;;;;;;;;;;;;5.92;67.29;103313.19;5015951;28;20395;-87
2022/03/21 03:23:52;;;;;;;;;;;;;;;5.98;66.50;103306.16;5032756;28;20025;-87
2022/03/21 03:26:18;;;;;;;;;;;;;;;5.89;66.70;103306.00;5032546;28;20011;-86
2022/03/21 03:28:44;;;;;;;;;;;;;;;5.90;67.09;103302.69;5016170;28;19989;-86
2022/03/21 03:31:09;;;;;;;;;;;;;;;5.89;66.99;103305.09;5031951;28;19932;-87
2022/03/21 03:33:35;;;;;;;;;;;;;;;5.90;66.98;103302.69;5032039;28;19921;-86
2022/03/21 03:36:01;;;;;;;;;;;;;;;5.97;66.51;103309.50;5031966;28;19921;-86
2022/03/21 03:38:27;;;;;;;;;;;;;;;5.97;66.56;103311.16;5033976;28;19917;-86
2022/03/21 03:40:54;;;;;;;;;;;;;;;5.96;66.45;103298.94;5032435;28;20002;-87
2022/03/21 03:43:20;;;;;;;;;;;;;;;5.93;66.27;103294.31;5032066;28;19921;-86
2022/03/21 03:45:48;;;;;;;;;;;;;;;5.88;66.61;103296.41;5032384;28;19921;-86
2022/03/21 03:48:14;;;;;;;;;;;;;;;5.79;66.37;103271.06;5015909;28;19927;-86
2022/03/21 03:50:40;;;;;;;;;;;;;;;5.87;66.75;103301.41;5031975;28;19921;-86
2022/03/21 03:53:05;;;;;;;;;;;;;;;5.92;66.58;103305.41;5033162;28;19921;-86
2022/03/21 03:55:30;;;;;;;;;;;;;;;5.89;66.59;103299.91;5015422;28;19924;-86
2022/03/21 03:57:56;;;;;;;;;;;;;;;5.81;67.07;103300.69;5015485;28;19928;-86
2022/03/21 04:00:21;;;;;;;;;;;;;;;5.80;66.74;103304.00;5031097;28;19968;-87
2022/03/21 04:05:31;;;;;;;;;;;;;;;5.87;66.88;103298.81;5032365;28;19928;-84
2022/03/21 04:07:56;;;;;;;;;;;;;;;5.87;66.72;103297.13;5048243;28;19917;-85
2022/03/21 04:10:23;;;;;;;;;;;;;;;5.91;66.30;103299.31;5031802;28;19978;-85
2022/03/21 04:12:49;;;;;;;;;;;;;;;6.01;66.07;103302.97;5014942;28;19991;-85
2022/03/21 04:15:14;;;;;;;;;;;;;;;5.89;66.38;103298.22;5039369;28;19925;-86
2022/03/21 04:17:40;;;;;;;;;;;;;;;5.71;66.44;103257.22;5030721;28;19928;-85
2022/03/21 04:20:06;;;;;;;;;;;;;;;5.87;66.40;103299.72;5027245;28;19964;-86
2022/03/21 04:22:32;;;;;;;;;;;;;;;5.73;66.90;103302.41;5007806;28;19921;-86
2022/03/21 04:24:58;;;;;;;;;;;;;;;5.80;66.84;103304.00;5035583;28;19922;-86
2022/03/21 04:27:23;;;;;;;;;;;;;;;5.88;66.28;103308.41;5022753;28;20425;-86
2022/03/21 04:29:49;;;;;;;;;;;;;;;5.91;66.05;103307.09;5048078;28;19925;-87
2022/03/21 04:32:14;;;;;;;;;;;;;;;5.86;66.43;103308.25;5030989;28;20016;-87
2022/03/21 04:34:40;;;;;;;;;;;;;;;5.88;66.07;103306.75;5031431;28;19921;-85
2022/03/21 04:37:08;;;;;;;;;;;;;;;5.75;66.53;103305.19;5015203;28;19925;-87
2022/03/21 04:39:35;;;;;;;;;;;;;;;5.80;66.48;103311.78;5032712;28;20298;-87
2022/03/21 04:42:01;;;;;;;;;;;;;;;5.81;66.39;103308.47;5015009;28;19921;-87
2022/03/21 04:44:26;;;;;;;;;;;;;;;5.79;66.67;103305.69;5015441;28;19924;-87
2022/03/21 04:46:55;;;;;;;;;;;;;;;5.75;66.25;103305.19;5015586;28;20371;-86
2022/03/21 04:49:22;;;;;;;;;;;;;;;5.79;66.27;103297.91;5033149;28;20424;-88
2022/03/21 04:51:48;;;;;;;;;;;;;;;5.81;66.18;103303.28;5014775;28;19921;-89
2022/03/21 04:54:14;;;;;;;;;;;;;;;5.72;66.35;103305.75;5031534;28;19917;-86
2022/03/21 04:56:40;;;;;;;;;;;;;;;5.90;65.83;103309.50;5031075;28;19936;-87
2022/03/21 04:59:07;;;;;;;;;;;;;;;5.79;65.92;103304.78;5014758;28;19929;-87
2022/03/21 05:01:33;;;;;;;;;;;;;;;5.81;66.05;103303.28;5031010;28;19971;-87
2022/03/21 05:03:59;;;;;;;;;;;;;;;5.73;66.33;103307.59;5014295;28;19924;-86
2022/03/21 05:06:25;;;;;;;;;;;;;;;5.77;66.22;103301.09;5030678;28;20639;-86
2022/03/21 05:08:52;;;;;;;;;;;;;;;5.84;66.31;103307.16;5030665;28;19917;-86
2022/03/21 05:11:17;;;;;;;;;;;;;;;5.74;66.44;103305.94;5047143;28;19921;-86
2022/03/21 05:13:43;;;;;;;;;;;;;;;5.82;66.68;103310.31;5032408;28;19940;-89
2022/03/21 05:16:08;;;;;;;;;;;;;;;5.84;65.64;103311.41;5030849;28;19925;-85
2022/03/21 05:18:34;;;;;;;;;;;;;;;5.81;65.53;103324.03;5030949;28;19925;-87
2022/03/21 05:21:04;;;;;;;;;;;;;;;5.76;66.13;103312.19;5030715;28;20377;-89
2022/03/21 05:31:44;;;;;;;;;;;;;;;5.71;65.86;103310.03;5011321;28;20391;-87
2022/03/21 05:36:54;;;;;;;;;;;;;;;5.68;66.44;103307.06;5045176;28;19974;-87
2022/03/21 05:39:22;;;;;;;;;;;;;;;5.71;66.49;103310.03;5047641;28;19917;-87
2022/03/21 05:41:51;;;;;;;;;;;;;;;5.66;65.83;103320.59;5050829;28;19960;-88
2022/03/21 05:44:16;;;;;;;;;;;;;;;5.62;66.12;103314.13;5051559;28;19953;-89
2022/03/21 05:46:43;;;;;;;;;;;;;;;5.62;66.62;103314.13;5022853;28;19973;-89
2022/03/21 05:51:57;;;;;;;;;;;;;;;5.61;66.35;103324.31;5031904;28;19924;-88
2022/03/21 05:54:24;;;;;;;;;;;;;;;5.70;65.95;103313.34;5039105;28;19960;-88
2022/03/21 05:56:50;;;;;;;;;;;;;;;5.70;65.79;103313.34;5017853;28;19928;-89
2022/03/21 06:01:59;;;;;;;;;;;;;;;5.60;66.46;103307.84;5032963;28;20325;-88
2022/03/21 06:04:25;;;;;;;;;;;;;;;5.67;65.92;103313.00;5027741;28;19924;-89
2022/03/21 06:06:52;;;;;;;;;;;;;;;5.69;66.67;103303.75;5010952;28;19925;-87
2022/03/21 06:09:21;;;;;;;;;;;;;;;5.65;66.77;103304.13;5033726;28;19918;-88
2022/03/21 06:11:48;;;;;;;;;;;;;;;5.64;66.61;103307.47;5026552;28;19944;-90
2022/03/21 06:14:24;;;;;;;;;;;;;;;5.63;67.24;103297.84;5017438;28;19917;-85
2022/03/21 06:16:54;;;;;;;;;;;;;;;5.74;66.40;103305.94;5035137;28;20394;-90
2022/03/21 06:19:22;;;;;;;;;;;;;;;5.75;66.65;103302.59;5011527;28;20019;-90
2022/03/21 06:21:47;;;;;;;;;;;;;;;5.69;67.26;103297.59;4997471;28;19925;-89
2022/03/21 06:24:13;;;;;;;;;;;;;;;5.71;67.13;103294.47;4995933;28;20394;-87
2022/03/21 06:26:39;;;;;;;;;;;;;;;5.81;66.96;103298.09;4997601;28;20317;-88
2022/03/21 06:29:05;;;;;;;;;;;;;;;5.69;67.66;103307.97;4997207;28;19925;-84
2022/03/21 06:31:32;;;;;;;;;;;;;;;5.69;67.19;103311.53;5010786;28;19917;-87
2022/03/21 06:34:10;;;;;;;;;;;;;;;5.69;67.59;103313.16;5013903;28;19940;-89
2022/03/21 06:36:55;;;;;;;;;;;;;;;5.61;67.79;103299.34;5003991;28;19918;-88
2022/03/21 06:39:24;;;;;;;;;;;;;;;5.70;67.95;103304.66;5021074;28;19921;-87
2022/03/21 06:41:51;;;;;;;;;;;;;;;5.75;67.23;103307.78;5024000;28;20024;-88
2022/03/21 06:44:16;;;;;;;;;;;;;;;5.72;67.71;103311.84;5014122;28;19917;-86
2022/03/21 06:46:42;;;;;;;;;;;;;;;5.58;68.25;103309.34;5002497;28;20017;-87
2022/03/21 06:49:07;;;;;;;;;;;;;;;5.60;68.05;103313.03;5009612;28;20307;-87
2022/03/21 06:51:33;;;;;;;;;;;;;;;5.66;68.15;103318.03;5008153;28;19932;-85
2022/03/21 06:53:58;;;;;;;;;;;;;;;5.62;68.08;103313.22;5013126;28;19921;-84
2022/03/21 06:56:23;;;;;;;;;;;;;;;5.72;67.49;103311.84;5014093;28;19988;-87
2022/03/21 06:58:49;;;;;;;;;;;;;;;5.53;68.19;103325.13;5015120;28;19988;-86
2022/03/21 07:01:14;;;;;;;;;;;;;;;5.52;68.41;103321.59;5012060;28;19922;-87
2022/03/21 07:03:40;;;;;;;;;;;;;;;5.58;67.90;103323.97;5028667;28;20034;-87
2022/03/21 07:06:29;;;;;;;;;;;;;;;5.53;68.16;103312.19;5007430;28;19921;-90
2022/03/21 07:09:11;;;;;;;;;;;;;;;5.59;68.10;103318.03;4995867;28;20280;-92
2022/03/21 07:11:42;;;;;;;;;;;;;;;5.59;67.96;103325.81;4980552;28;19926;-89
2022/03/21 07:14:12;;;;;;;;;;;;;;;5.56;68.22;103323.78;5001654;28;19924;-90
2022/03/21 07:16:38;;;;;;;;;;;;;;;5.50;68.59;103324.03;5010385;28;19918;-90
2022/03/21 07:19:06;;;;;;;;;;;;;;;5.58;68.38;103331.75;5009890;28;20319;-88
2022/03/21 07:21:34;;;;;;;;;;;;;;;5.46;68.51;103332.19;4997589;28;20383;-89
2022/03/21 07:24:00;;;;;;;;;;;;;;;5.49;68.31;103332.53;5013134;28;19929;-89
2022/03/21 07:26:26;;;;;;;;;;;;;;;5.55;68.17;103332.34;5029327;28;19921;-89
2022/03/21 07:28:52;;;;;;;;;;;;;;;5.56;68.34;103331.56;5013182;28;19921;-88
2022/03/21 07:31:17;;;;;;;;;;;;;;;5.59;68.58;103336.19;4997151;28;20012;-88
2022/03/21 07:33:42;;;;;;;;;;;;;;;5.47;68.92;103334.03;5005095;28;20005;-88
2022/03/21 07:36:10;;;;;;;;;;;;;;;5.51;68.66;103327.53;5005739;28;19975;-88
2022/03/21 07:38:38;;;;;;;;;;;;;;;5.43;68.86;103330.91;5008291;28;19918;-88
2022/03/21 07:41:07;;;;;;;;;;;;;;;5.53;68.52;103325.13;4994901;28;19924;-88
2022/03/21 07:43:34;;;;;;;;;;;;;;;5.51;68.76;103319.75;4989244;28;19959;-89
2022/03/21 07:48:57;;;;;;;;;;;;;;;5.41;69.07;103317.78;5027386;28;19924;-88
2022/03/21 07:51:23;;;;;;;;;;;;;;;5.45;69.21;103314.78;5014180;28;19918;-89
2022/03/21 07:53:49;;;;;;;;;;;;;;;5.52;68.83;103313.81;5012922;28;19924;-90
2022/03/21 07:56:16;;;;;;;;;;;;;;;5.51;68.85;103312.00;4996878;28;20415;-89
2022/03/21 07:58:45;;;;;;;;;;;;;;;5.46;68.47;103320.88;5013290;28;19918;-89
2022/03/21 08:01:13;;;;;;;;;;;;;;;5.47;68.67;103313.28;5028997;28;19921;-87
2022/03/21 08:03:38;;;;;;;;;;;;;;;5.64;68.54;103320.44;5025010;28;19921;-87
2022/03/21 08:06:08;;;;;;;;;;;;;;;5.59;68.25;103307.66;5005433;28;20284;-88
2022/03/21 08:08:33;;;;;;;;;;;;;;;5.53;68.72;103318.28;4987674;28;19918;-88
2022/03/21 08:10:59;;;;;;;;;;;;;;;5.43;68.49;103308.50;4991859;28;19922;-87
2022/03/21 08:13:26;;;;;;;;;;;;;;;5.53;68.61;103312.19;5005563;28;19918;-88
2022/03/21 08:15:52;;;;;;;;;;;;;;;5.58;68.30;103313.63;5013973;28;19928;-88
2022/03/21 08:18:21;;;;;;;;;;;;;;;5.50;68.51;103320.50;5016818;28;19957;-87
2022/03/21 08:20:46;;;;;;;;;;;;;;;5.30;68.71;103280.25;5012684;28;19922;-87
2022/03/21 08:23:13;;;;;;;;;;;;;;;5.58;68.40;103311.03;5011741;28;19917;-87
2022/03/21 08:25:39;;;;;;;;;;;;;;;5.79;67.82;103309.97;5011075;28;19922;-87
2022/03/21 08:28:06;;;;;;;;;;;;;;;5.60;68.30;103309.53;5011152;28;19929;-87
2022/03/21 08:30:35;;;;;;;;;;;;;;;5.50;68.65;103313.66;5012208;28;20443;-88
2022/03/21 08:33:02;;;;;;;;;;;;;;;5.51;68.75;103306.81;5011618;28;19921;-88
2022/03/21 08:35:28;;;;;;;;;;;;;;;5.48;68.81;103306.44;5008308;28;19937;-88
2022/03/21 08:37:53;;;;;;;;;;;;;;;5.46;68.65;103307.94;5012897;28;20296;-88
2022/03/21 08:40:20;;;;;;;;;;;;;;;5.43;69.01;103294.63;5010605;28;20050;-88
2022/03/21 08:42:47;;;;;;;;;;;;;;;5.50;68.67;103302.34;5013245;28;19914;-88
2022/03/21 08:45:15;;;;;;;;;;;;;;;5.49;69.01;103297.94;5018629;28;20311;-89
2022/03/21 08:47:41;;;;;;;;;;;;;;;5.63;68.22;103290.09;5015802;28;19921;-88
2022/03/21 08:50:07;;;;;;;;;;;;;;;5.50;68.55;103282.56;5034019;28;20410;-88
2022/03/21 08:52:32;;;;;;;;;;;;;;;5.57;68.38;103284.19;5028448;28;19921;-88
2022/03/21 08:54:58;;;;;;;;;;;;;;;5.60;67.92;103284.53;5033516;28;19927;-88
2022/03/21 08:57:24;;;;;;;;;;;;;;;5.61;68.43;103281.19;5016434;28;19921;-84
2022/03/21 08:59:52;;;;;;;;;;;;;;;5.68;67.72;103286.31;5023649;28;19967;-89
2022/03/21 09:02:18;;;;;;;;;;;;;;;5.58;68.16;103286.00;5031143;28;19925;-88
2022/03/21 09:04:45;;;;;;;;;;;;;;;5.56;68.52;103284.91;5026510;28;19971;-88
2022/03/21 09:07:13;;;;;;;;;;;;;;;5.47;68.27;103295.16;5028090;28;19929;-88
2022/03/21 09:09:38;;;;;;;;;;;;;;;5.61;68.40;103291.56;4998253;28;19922;-88
2022/03/21 09:12:04;;;;;;;;;;;;;;;5.69;67.89;103289.84;5014029;28;20665;-88
2022/03/21 09:14:29;;;;;;;;;;;;;;;5.54;68.62;103299.38;5030546;28;19921;-88
2022/03/21 09:16:56;;;;;;;;;;;;;;;5.51;68.51;103292.16;5047753;28;19975;-88
2022/03/21 09:19:23;;;;;;;;;;;;;;;5.59;68.27;103289.53;5067283;28;19921;-89
2022/03/21 09:21:50;;;;;;;;;;;;;;;5.56;68.28;103292.69;5033880;28;20007;-89
2022/03/21 09:24:15;;;;;;;;;;;;;;;5.68;67.99;103294.09;5050860;28;20035;-88
2022/03/21 09:26:41;;;;;;;;;;;;;;;5.62;67.93;103289.91;5034019;28;19921;-88
2022/03/21 09:29:09;;;;;;;;;;;;;;;5.53;68.19;103283.66;5034681;28;19939;-89
2022/03/21 09:31:40;;;;;;;;;;;;;;;5.51;68.58;103281.81;5032725;28;19921;-89
2022/03/21 09:34:05;;;;;;;;;;;;;;;5.54;68.62;103283.81;5018358;28;19987;-88
2022/03/21 09:36:31;;;;;;;;;;;;;;;5.55;68.54;103282.19;5022906;28;20402;-89
2022/03/21 09:38:57;;;;;;;;;;;;;;;5.52;68.56;103282.72;5030872;28;20298;-88
2022/03/21 09:41:25;;;;;;;;;;;;;;;5.50;68.51;103287.75;5028194;28;19917;-88
2022/03/21 09:43:54;;;;;;;;;;;;;;;5.60;68.24;103279.34;5021015;28;19965;-89
2022/03/21 09:46:21;;;;;;;;;;;;;;;5.65;68.04;103286.00;5013437;28;19920;-89
2022/03/21 09:48:47;;;;;;;;;;;;;;;5.70;67.57;103277.06;5014576;28;19917;-89
2022/03/21 09:51:13;;;;;;;;;;;;;;;5.84;66.43;103277.69;5037289;28;19921;-88
2022/03/21 09:53:39;;;;;;;;;;;;;;;5.88;66.83;103275.66;5017345;28;20401;-87
2022/03/21 09:56:17;;;;;;;;;;;;;;;5.75;67.28;103274.06;5030345;28;19924;-90
2022/03/21 09:58:50;;;;;;;;;;;;;;;5.62;67.53;103271.75;5047125;28;19917;-90
2022/03/21 10:01:20;;;;;;;;;;;;;;;5.98;66.06;103269.84;5047979;28;19979;-91
2022/03/21 10:03:49;;;;;;;;;;;;;;;5.79;66.45;103277.16;5048181;28;19917;-90
2022/03/21 10:06:40;;;;;;;;;;;;;;;5.89;66.02;103268.78;5047871;28;19917;-92
2022/03/21 10:09:08;;;;;;;;;;;;;;;5.77;66.43;103277.75;5026230;28;20383;-90
2022/03/21 10:11:39;;;;;;;;;;;;;;;6.15;64.92;103265.63;5031283;28;19922;-91
2022/03/21 10:17:10;;;;;;;;;;;;;;;5.81;66.23;103272.16;5032138;28;19917;-91
2022/03/21 10:19:54;;;;;;;;;;;;;;;5.80;65.76;103285.88;4995096;28;19980;-91
2022/03/21 10:22:46;;;;;;;;;;;;;;;5.89;65.80;103271.38;5011496;28;19918;-91
2022/03/21 10:25:16;;;;;;;;;;;;;;;5.77;66.07;103262.19;5027797;28;19976;-90
2022/03/21 10:27:42;;;;;;;;;;;;;;;5.74;66.37;103270.56;4998979;28;19928;-89
2022/03/21 10:30:09;;;;;;;;;;;;;;;6.17;64.92;103271.91;4998529;28;19918;-89
2022/03/21 10:32:36;;;;;;;;;;;;;;;6.45;62.78;103258.63;4998658;28;20299;-90
2022/03/21 10:35:23;;;;;;;;;;;;;;;6.03;64.67;103247.94;4996054;28;19918;-90
2022/03/21 10:37:53;;;;;;;;;;;;;;;5.94;64.97;103243.34;5010779;28;19924;-89
2022/03/21 10:40:23;;;;;;;;;;;;;;;6.21;63.98;103243.88;4994939;28;19940;-89
2022/03/21 10:42:57;;;;;;;;;;;;;;;6.23;64.04;103226.81;5011288;28;20073;-90
2022/03/21 10:45:26;;;;;;;;;;;;;;;6.27;63.99;103246.25;4996231;28;20382;-89
2022/03/21 10:47:52;;;;;;;;;;;;;;;5.95;65.19;103251.34;4995142;28;19918;-90
2022/03/21 10:50:30;;;;;;;;;;;;;;;5.82;66.00;103238.66;4995376;28;19941;-90
2022/03/21 10:53:15;;;;;;;;;;;;;;;6.05;65.09;103230.88;4995001;28;19981;-89
2022/03/21 10:55:42;;;;;;;;;;;;;;;5.85;66.21;103223.41;5011658;28;19929;-90
2022/03/21 10:58:08;;;;;;;;;;;;;;;5.76;66.45;103227.56;4995228;28;19925;-88
2022/03/21 11:00:36;;;;;;;;;;;;;;;5.67;66.73;103222.28;5011267;28;19918;-90
2022/03/21 11:03:15;;;;;;;;;;;;;;;6.01;65.25;103217.38;4996161;28;19948;-89
2022/03/21 11:05:46;;;;;;;;;;;;;;;5.78;66.69;103223.50;4994561;28;20376;-89
2022/03/21 11:08:12;;;;;;;;;;;;;;;5.79;66.55;103220.13;4994880;28;20322;-90
2022/03/21 11:10:41;;;;;;;;;;;;;;;5.80;66.52;103211.63;4994652;28;19925;-90
2022/03/21 11:13:08;;;;;;;;;;;;;;;5.75;66.58;103210.16;4995895;28;19918;-90
2022/03/21 11:15:38;;;;;;;;;;;;;;;5.77;66.83;103203.47;4994650;28;19914;-91
2022/03/21 11:18:04;;;;;;;;;;;;;;;5.96;65.83;103203.00;5002125;28;19969;-90
2022/03/21 11:20:32;;;;;;;;;;;;;;;5.97;65.82;103202.22;5014229;28;20137;-89
2022/03/21 11:23:07;;;;;;;;;;;;;;;6.11;65.48;103196.91;5014287;28;19971;-90
2022/03/21 11:25:36;;;;;;;;;;;;;;;5.84;66.49;103193.06;5014362;28;19925;-90
2022/03/21 11:28:08;;;;;;;;;;;;;;;6.02;65.45;103186.44;5014240;28;19917;-89
2022/03/21 11:30:34;;;;;;;;;;;;;;;6.39;64.47;103190.50;5014612;28;19928;-88
2022/03/21 11:33:19;;;;;;;;;;;;;;;6.11;65.55;103191.72;5014779;28;19957;-87
2022/03/21 11:36:04;;;;;;;;;;;;;;;5.95;66.03;103195.94;5030076;28;19917;-86
2022/03/21 11:38:30;;;;;;;;;;;;;;;6.31;64.90;103192.25;5013867;28;20397;-89
2022/03/21 11:41:18;;;;;;;;;;;;;;;6.20;64.95;103184.97;5013538;28;19914;-88
2022/03/21 11:43:46;;;;;;;;;;;;;;;6.42;64.38;103196.03;5029891;28;19917;-87
2022/03/21 11:46:27;;;;;;;;;;;;;;;6.13;65.52;103190.22;5030332;28;19914;-86
2022/03/21 11:48:55;;;;;;;;;;;;;;;6.10;65.79;103184.69;5013728;28;19917;-88
2022/03/21 11:51:25;;;;;;;;;;;;;;;5.96;66.45;103183.16;5013395;28;20390;-88
2022/03/21 11:53:53;;;;;;;;;;;;;;;6.01;66.51;103187.19;5015017;28;19921;-88
2022/03/21 11:56:39;;;;;;;;;;;;;;;5.98;67.08;103178.16;5030038;28;19921;-87
2022/03/21 11:59:04;;;;;;;;;;;;;;;5.99;66.99;103170.53;5003846;28;20342;-89
2022/03/21 12:01:36;;;;;;;;;;;;;;;5.98;67.10;103171.28;5029787;28;19925;-90
2022/03/21 12:04:30;;;;;;;;;;;;;;;6.03;66.84;103172.72;5030270;28;19918;-90
2022/03/21 12:06:59;;;;;;;;;;;;;;;6.02;67.24;103168.28;5001464;28;20391;-89
2022/03/21 12:09:24;;;;;;;;;;;;;;;6.15;66.74;103174.81;5013165;28;19924;-90
2022/03/21 12:11:50;;;;;;;;;;;;;;;6.10;66.51;103179.50;5013708;28;19921;-89
2022/03/21 12:14:54;;;;;;;;;;;;;;;6.00;67.11;103177.56;5015627;28;20342;-89
2022/03/21 12:17:11;;;;;;;;;;;;;;;6.00;67.22;103174.06;5012197;28;19927;-89
2022/03/21 12:19:46;;;;;;;;;;;;;;;6.00;67.24;103177.56;5029924;28;19928;-89
2022/03/21 12:22:26;;;;;;;;;;;;;;;6.04;67.25;103182.34;5033976;28;19924;-88
2022/03/21 12:24:52;;;;;;;;;;;;;;;6.38;66.45;103177.34;5049500;28;19917;-89
2022/03/21 12:27:31;;;;;;;;;;;;;;;6.39;66.20;103179.19;5032760;28;20353;-89
2022/03/21 12:30:16;;;;;;;;;;;;;;;6.24;66.79;103178.41;5048839;28;19917;-90
2022/03/21 12:32:49;;;;;;;;;;;;;;;6.35;66.57;103164.97;5033176;28;19924;-88
2022/03/21 12:35:40;;;;;;;;;;;;;;;6.34;66.53;103163.13;5048527;28;19925;-89
2022/03/21 12:41:02;;;;;;;;;;;;;;;6.25;66.58;103156.94;5033224;28;20016;-90
2022/03/21 12:43:45;;;;;;;;;;;;;;;6.31;66.88;103162.78;5048671;28;19925;-89
2022/03/21 12:46:12;;;;;;;;;;;;;;;6.55;65.95;103151.56;5033151;28;19964;-89
2022/03/21 12:48:41;;;;;;;;;;;;;;;6.52;65.94;103159.94;5041406;28;19921;-90
2022/03/21 12:51:13;;;;;;;;;;;;;;;6.39;66.52;103148.97;5031956;28;19917;-90
2022/03/21 12:53:43;;;;;;;;;;;;;;;6.52;66.36;103149.56;5032157;28;19948;-89
2022/03/21 12:56:08;;;;;;;;;;;;;;;6.57;65.98;103151.72;5031721;28;19917;-87
2022/03/21 12:58:45;;;;;;;;;;;;;;;6.44;66.39;103145.19;5030225;28;19975;-88
2022/03/21 13:01:14;;;;;;;;;;;;;;;6.36;66.64;103143.44;5011932;28;19921;-89
2022/03/21 13:03:40;;;;;;;;;;;;;;;6.48;66.32;103142.19;4994703;28;19945;-88
2022/03/21 13:11:34;;;;;;;;;;;;;;;6.57;66.24;103134.47;5011367;28;19917;-88
2022/03/21 13:14:04;;;;;;;;;;;;;;;6.53;66.15;103140.09;5012620;28;19980;-84
2022/03/21 13:16:30;;;;;;;;;;;;;;;6.38;66.59;103143.63;5011032;28;19917;-85
2022/03/21 13:18:57;;;;;;;;;;;;;;;6.38;66.77;103149.72;5007699;28;19921;-85
2022/03/21 13:21:22;;;;;;;;;;;;;;;6.51;66.58;103147.69;4991297;28;19918;-85
2022/03/21 13:23:52;;;;;;;;;;;;;;;6.54;66.03;103147.13;4991547;28;19925;-86
2022/03/21 13:26:22;;;;;;;;;;;;;;;6.53;65.92;103146.19;4991552;28;19917;-85
2022/03/21 13:28:47;;;;;;;;;;;;;;;6.30;67.03;103146.28;4991295;28;19949;-86
2022/03/21 13:31:19;;;;;;;;;;;;;;;6.31;66.89;103144.63;4990811;28;19964;-86